createdAt,value
2023-03-14T00:01:31.399Z,154.25
2023-03-14T00:03:58.231Z,101.00
2023-03-14T00:06:25.168Z,103.75
2023-03-14T00:08:52.858Z,136.75
2023-03-14T00:11:22.100Z,148.25
2023-03-14T00:13:52.258Z,149.25
2023-03-14T00:16:19.723Z,133.00
2023-03-14T00:18:46.495Z,135.50
2023-03-14T00:21:14.479Z,149.25
2023-03-14T00:23:43.037Z,144.50
2023-03-14T00:26:15.478Z,167.75
2023-03-14T00:28:43.369Z,116.25
2023-03-14T00:31:13.000Z,120.00
2023-03-14T00:33:41.709Z,119.75
2023-03-14T00:36:14.344Z,122.75
2023-03-14T00:38:42.690Z,130.75
2023-03-14T00:41:11.941Z,120.50
2023-03-14T00:43:38.884Z,74.25
2023-03-14T00:46:06.616Z,111.00
2023-03-14T00:48:33.715Z,134.50
2023-03-14T00:51:01.673Z,122.50
2023-03-14T00:53:28.639Z,118.00
2023-03-14T00:55:55.340Z,115.50
2023-03-14T00:58:22.165Z,124.75
2023-03-14T01:00:49.118Z,130.00
2023-03-14T01:03:16.569Z,139.50
2023-03-14T01:05:43.757Z,130.25
2023-03-14T01:08:10.638Z,136.00
2023-03-14T01:10:41.730Z,78.50
2023-03-14T01:13:09.916Z,94.00
2023-03-14T01:15:38.175Z,70.25
2023-03-14T01:18:05.426Z,112.50
2023-03-14T01:20:32.369Z,68.25
2023-03-14T01:22:59.540Z,66.75
2023-03-14T01:25:26.466Z,48.00
2023-03-14T01:27:53.287Z,55.25
2023-03-14T01:30:20.144Z,88.00
2023-03-14T01:32:46.970Z,90.75
2023-03-14T01:35:13.751Z,116.50
2023-03-14T01:37:40.987Z,95.25
2023-03-14T01:40:15.080Z,124.75
2023-03-14T01:42:46.828Z,126.50
2023-03-14T01:45:51.096Z,114.50
2023-03-14T01:48:18.095Z,121.50
2023-03-14T01:50:44.958Z,122.75
2023-03-14T01:53:11.715Z,110.75
2023-03-14T01:55:38.562Z,126.75
2023-03-14T01:58:06.314Z,125.25
2023-03-14T02:00:34.035Z,103.25
2023-03-14T02:03:08.223Z,127.00
2023-03-14T02:05:39.883Z,123.75
2023-03-14T02:08:15.037Z,99.75
2023-03-14T02:10:49.732Z,123.25
2023-03-14T02:13:22.512Z,112.50
2023-03-14T02:16:25.072Z,94.00
2023-03-14T02:19:04.596Z,87.75
2023-03-14T02:21:44.456Z,51.00
2023-03-14T02:24:33.488Z,57.00
2023-03-14T02:27:13.992Z,56.00
2023-03-14T02:29:50.394Z,53.25
2023-03-14T02:32:18.812Z,56.75
2023-03-14T02:34:50.509Z,53.00
2023-03-14T02:37:20.054Z,46.25
2023-03-14T02:39:48.956Z,57.25
2023-03-14T02:42:16.495Z,44.75
2023-03-14T02:44:51.564Z,51.25
2023-03-14T02:47:23.526Z,44.75
2023-03-14T02:50:00.125Z,46.00
2023-03-14T02:52:27.021Z,40.50
2023-03-14T02:54:53.806Z,38.50
2023-03-14T02:57:20.633Z,32.50
2023-03-14T02:59:47.480Z,40.75
2023-03-14T03:02:18.275Z,34.75
2023-03-14T03:04:45.073Z,39.50
2023-03-14T03:07:11.918Z,62.25
2023-03-14T03:09:38.709Z,65.25
2023-03-14T03:12:06.106Z,58.00
2023-03-14T03:14:33.271Z,65.50
2023-03-14T03:17:03.174Z,62.00
2023-03-14T03:19:30.039Z,68.00
2023-03-14T03:21:56.862Z,68.50
2023-03-14T03:24:23.677Z,69.50
2023-03-14T03:26:50.447Z,70.00
2023-03-14T03:29:17.303Z,68.50
2023-03-14T03:31:46.498Z,65.50
2023-03-14T03:34:14.809Z,55.50
2023-03-14T03:36:43.565Z,58.50
2023-03-14T03:39:10.591Z,60.75
2023-03-14T03:41:37.364Z,57.75
2023-03-14T03:44:04.636Z,58.75
2023-03-14T03:46:31.556Z,55.75
2023-03-14T03:49:00.436Z,69.00
2023-03-14T03:51:29.137Z,74.75
2023-03-14T03:53:58.009Z,75.25
2023-03-14T03:56:30.911Z,78.00
2023-03-14T03:58:57.858Z,79.00
2023-03-14T04:01:25.005Z,63.00
2023-03-14T04:03:55.163Z,86.25
2023-03-14T04:06:22.670Z,79.50
2023-03-14T04:08:51.105Z,83.75
2023-03-14T04:11:39.125Z,76.50
2023-03-14T04:14:29.142Z,72.50
2023-03-14T04:17:13.686Z,71.25
2023-03-14T04:19:40.546Z,68.25
2023-03-14T04:22:07.495Z,67.25
2023-03-14T04:24:39.782Z,69.50
2023-03-14T04:27:06.551Z,68.25
2023-03-14T04:29:34.862Z,67.00
2023-03-14T04:32:01.794Z,69.00
2023-03-14T04:34:28.858Z,64.00
2023-03-14T04:36:57.115Z,71.75
2023-03-14T04:39:33.778Z,60.25
2023-03-14T04:42:09.208Z,75.50
2023-03-14T04:44:38.168Z,70.75
2023-03-14T04:47:05.690Z,76.75
2023-03-14T04:49:33.039Z,85.25
2023-03-14T04:52:00.442Z,77.00
2023-03-14T04:54:29.888Z,71.25
2023-03-14T04:56:59.973Z,69.00
2023-03-14T04:59:30.880Z,65.25
2023-03-14T05:02:04.578Z,65.75
2023-03-14T05:04:54.015Z,69.25
2023-03-14T05:07:39.453Z,74.50
2023-03-14T05:10:24.817Z,66.75
2023-03-14T05:13:24.081Z,55.75
2023-03-14T05:16:12.561Z,71.00
2023-03-14T05:19:05.597Z,62.75
2023-03-14T05:21:35.027Z,52.75
2023-03-14T05:24:32.186Z,59.50
2023-03-14T05:27:15.867Z,68.75
2023-03-14T05:30:10.791Z,72.75
2023-03-14T05:33:06.655Z,72.25
2023-03-14T05:35:44.082Z,77.50
2023-03-14T05:38:40.411Z,79.00
2023-03-14T05:41:26.086Z,72.50
2023-03-14T05:44:11.510Z,98.25
2023-03-14T05:46:55.120Z,92.25
2023-03-14T05:49:48.019Z,88.50
2023-03-14T05:52:37.686Z,104.75
2023-03-14T05:55:17.265Z,105.25
2023-03-14T05:58:04.292Z,96.00
2023-03-14T06:00:43.857Z,99.75
2023-03-14T06:03:34.588Z,88.00
2023-03-14T06:06:01.602Z,109.75
2023-03-14T06:08:29.076Z,109.00
2023-03-14T06:10:57.682Z,116.50
2023-03-14T06:13:29.299Z,131.25
2023-03-14T06:15:56.303Z,112.75
2023-03-14T06:18:23.121Z,148.25
2023-03-14T06:20:50.137Z,167.75
2023-03-14T06:23:23.995Z,138.75
2023-03-14T06:25:51.607Z,162.00
2023-03-14T06:28:18.609Z,132.75
2023-03-14T06:30:45.542Z,161.75
2023-03-14T06:33:14.445Z,140.50
2023-03-14T06:35:42.279Z,135.50
2023-03-14T06:38:09.270Z,123.50
2023-03-14T06:40:36.318Z,130.00
2023-03-14T06:43:10.541Z,122.00
2023-03-14T06:45:39.978Z,134.50
2023-03-14T06:48:07.029Z,134.50
2023-03-14T06:50:50.863Z,128.25
2023-03-14T06:53:18.016Z,131.50
2023-03-14T06:55:46.760Z,126.25
2023-03-14T06:58:16.061Z,125.00
2023-03-14T07:00:45.518Z,117.75
2023-03-14T07:03:16.236Z,118.00
2023-03-14T07:05:46.459Z,113.00
2023-03-14T07:08:13.378Z,129.75
2023-03-14T07:10:40.169Z,127.00
2023-03-14T07:13:08.319Z,145.75
2023-03-14T07:15:44.982Z,167.75
2023-03-14T07:18:12.042Z,172.50
2023-03-14T07:20:39.304Z,174.00
2023-03-14T07:23:07.596Z,172.50
2023-03-14T07:25:39.505Z,173.50
2023-03-14T07:28:06.467Z,210.50
2023-03-14T07:30:33.787Z,219.75
2023-03-14T07:33:03.049Z,170.25
2023-03-14T07:35:30.055Z,167.75
2023-03-14T07:37:56.824Z,176.50
2023-03-14T07:40:30.790Z,189.25
2023-03-14T07:42:58.034Z,183.50
2023-03-14T07:45:42.968Z,168.50
2023-03-14T07:48:10.996Z,179.50
2023-03-14T07:50:37.944Z,179.50
2023-03-14T07:53:04.722Z,167.75
2023-03-14T07:55:31.514Z,172.00
2023-03-14T07:57:58.522Z,181.25
2023-03-14T08:00:25.409Z,152.25
2023-03-14T08:02:52.289Z,164.50
2023-03-14T08:05:19.184Z,145.25
2023-03-14T08:07:46.009Z,150.50
2023-03-14T08:10:16.846Z,139.75
2023-03-14T08:12:43.623Z,166.00
2023-03-14T08:15:10.848Z,161.25
2023-03-14T08:17:37.695Z,166.00
2023-03-14T08:20:09.202Z,171.25
2023-03-14T08:22:36.019Z,178.25
2023-03-14T08:25:03.289Z,173.50
2023-03-14T08:27:30.176Z,150.25
2023-03-14T08:29:57.016Z,153.00
2023-03-14T08:32:24.763Z,166.75
2023-03-14T08:34:51.658Z,172.75
2023-03-14T08:37:26.560Z,194.25
2023-03-14T08:39:54.773Z,129.75
2023-03-14T08:42:21.644Z,124.50
2023-03-14T08:44:48.405Z,112.50
2023-03-14T08:47:15.418Z,110.00
2023-03-14T08:49:42.418Z,107.00
2023-03-14T08:52:09.400Z,106.25
2023-03-14T08:54:36.481Z,121.00
2023-03-14T08:57:03.372Z,91.25
2023-03-14T08:59:30.403Z,126.00
2023-03-14T09:01:57.279Z,157.50
2023-03-14T09:04:24.244Z,157.75
2023-03-14T09:06:51.818Z,155.75
2023-03-14T09:09:18.738Z,156.50
2023-03-14T09:11:45.541Z,134.50
2023-03-14T09:14:12.365Z,103.75
2023-03-14T09:16:39.344Z,119.25
2023-03-14T09:19:06.702Z,126.25
2023-03-14T09:21:33.770Z,119.25
2023-03-14T09:24:00.702Z,99.25
2023-03-14T09:26:27.656Z,106.75
2023-03-14T09:28:54.958Z,90.00
2023-03-14T09:31:22.554Z,102.50
2023-03-14T09:33:49.408Z,132.50
2023-03-14T09:36:16.253Z,122.50
2023-03-14T09:38:43.212Z,116.75
2023-03-14T09:41:17.013Z,132.25
2023-03-14T09:43:46.122Z,105.00
2023-03-14T09:46:14.714Z,106.50
2023-03-14T09:48:42.415Z,113.50
2023-03-14T09:51:15.898Z,118.75
2023-03-14T09:53:51.059Z,109.50
2023-03-14T09:56:21.581Z,70.75
2023-03-14T09:59:14.534Z,72.75
2023-03-14T10:01:41.893Z,63.00
2023-03-14T10:04:16.325Z,76.75
2023-03-14T10:06:43.179Z,78.75
2023-03-14T10:09:20.597Z,74.25
2023-03-14T10:11:47.504Z,99.00
2023-03-14T10:14:28.859Z,82.75
2023-03-14T10:16:55.681Z,87.00
2023-03-14T10:19:22.556Z,95.75
2023-03-14T10:21:54.631Z,83.75
2023-03-14T10:24:30.533Z,80.25
2023-03-14T10:27:06.326Z,80.25
2023-03-14T10:29:35.328Z,80.75
2023-03-14T10:32:06.268Z,113.50
2023-03-14T10:34:38.914Z,109.75
2023-03-14T10:37:27.733Z,111.25
2023-03-14T10:39:59.711Z,56.75
2023-03-14T10:42:32.820Z,68.50
2023-03-14T10:45:03.375Z,46.67
2023-03-14T10:47:30.969Z,7.00
2023-03-14T10:50:15.535Z,16.00
2023-03-14T10:53:03.759Z,5.00
2023-03-14T10:55:41.844Z,4.50
2023-03-14T10:58:23.646Z,15.75
2023-03-14T11:01:08.693Z,8.50
2023-03-14T11:03:37.485Z,10.00
2023-03-14T11:06:18.222Z,13.75
2023-03-14T11:08:54.754Z,14.25
2023-03-14T11:11:26.428Z,31.75
2023-03-14T11:14:02.120Z,17.25
2023-03-14T11:16:52.102Z,8.75
2023-03-14T11:19:44.951Z,16.00
2023-03-14T11:22:36.461Z,15.25
2023-03-14T11:25:26.350Z,10.50
2023-03-14T11:28:28.502Z,5.75
2023-03-14T11:31:11.058Z,11.75
2023-03-14T11:34:08.068Z,7.25
2023-03-14T11:36:35.339Z,6.25
2023-03-14T11:39:04.352Z,6.00
2023-03-14T11:41:37.274Z,4.50
2023-03-14T11:44:26.016Z,20.00
2023-03-14T11:47:15.670Z,8.00
2023-03-14T11:49:48.504Z,20.75
2023-03-14T11:52:18.157Z,6.00
2023-03-14T11:54:55.196Z,4.75
2023-03-14T11:57:23.736Z,7.00
2023-03-14T12:00:15.098Z,4.50
2023-03-14T12:03:05.945Z,4.00
2023-03-14T12:06:03.654Z,7.50
2023-03-14T12:09:00.106Z,10.25
2023-03-14T12:12:07.625Z,14.75
2023-03-14T12:14:45.024Z,18.75
2023-03-14T12:17:24.009Z,4.00
2023-03-14T12:20:13.847Z,7.00
2023-03-14T12:22:44.599Z,11.75
2023-03-14T12:25:33.158Z,27.00
2023-03-14T12:28:22.221Z,25.25
2023-03-14T12:30:49.579Z,10.50
2023-03-14T12:33:18.959Z,4.50
2023-03-14T12:35:46.915Z,7.00
2023-03-14T12:38:44.117Z,5.00
2023-03-14T12:41:21.827Z,7.00
2023-03-14T12:43:48.748Z,4.50
2023-03-14T12:46:18.324Z,14.50
2023-03-14T12:48:47.802Z,18.25
2023-03-14T12:51:16.945Z,11.50
2023-03-14T12:53:46.573Z,5.00
2023-03-14T12:56:33.408Z,6.75
2023-03-14T12:59:15.816Z,25.00
2023-03-14T13:02:03.500Z,20.00
2023-03-14T13:04:44.520Z,7.50
2023-03-14T13:07:32.315Z,4.50
2023-03-14T13:10:11.166Z,10.00
2023-03-14T13:12:48.160Z,18.75
2023-03-14T13:15:21.035Z,5.00
2023-03-14T13:17:50.608Z,21.50
2023-03-14T13:20:29.142Z,12.75
2023-03-14T13:22:57.663Z,45.00
2023-03-14T13:25:24.835Z,15.25
2023-03-14T13:27:56.787Z,13.00
2023-03-14T13:30:30.575Z,14.50
2023-03-14T13:32:57.847Z,13.75
2023-03-14T13:35:26.046Z,16.00
2023-03-14T13:38:17.643Z,12.50
2023-03-14T13:40:46.385Z,18.75
2023-03-14T13:43:21.281Z,13.75
2023-03-14T13:46:04.872Z,24.00
2023-03-14T13:48:34.444Z,9.50
2023-03-14T13:51:08.560Z,26.25
2023-03-14T13:54:05.255Z,20.75
2023-03-14T13:56:34.056Z,32.00
2023-03-14T13:59:01.111Z,19.25
2023-03-14T14:01:32.248Z,19.75
2023-03-14T14:04:23.336Z,7.75
2023-03-14T14:06:55.577Z,5.50
2023-03-14T14:09:27.140Z,7.50
2023-03-14T14:12:17.772Z,15.25
2023-03-14T14:14:57.333Z,8.25
2023-03-14T14:17:40.540Z,5.00
2023-03-14T14:20:21.582Z,7.25
2023-03-14T14:22:49.414Z,1.50
2023-03-14T14:25:16.691Z,28.00
2023-03-14T14:27:47.781Z,6.50
2023-03-14T14:30:20.248Z,14.25
2023-03-14T14:32:52.071Z,7.25
2023-03-14T14:35:25.048Z,3.50
2023-03-14T14:37:52.677Z,7.25
2023-03-14T14:40:25.959Z,5.75
2023-03-14T14:42:53.242Z,5.00
2023-03-14T14:45:23.281Z,5.00
2023-03-14T14:47:56.141Z,2.50
2023-03-14T14:50:30.576Z,6.75
2023-03-14T14:53:02.700Z,3.00
2023-03-14T14:55:35.259Z,0.25
2023-03-14T14:58:27.283Z,4.00
2023-03-14T15:01:04.928Z,9.75
2023-03-14T15:03:35.588Z,5.75
2023-03-14T15:06:04.605Z,6.00
2023-03-14T15:08:31.541Z,5.50
2023-03-14T15:10:58.923Z,4.00
2023-03-14T15:13:25.899Z,7.00
2023-03-14T15:15:59.031Z,5.50
2023-03-14T15:18:31.514Z,8.25
2023-03-14T15:20:58.440Z,7.25
2023-03-14T15:23:25.406Z,9.25
2023-03-14T15:25:56.038Z,9.00
2023-03-14T15:28:28.726Z,7.00
2023-03-14T15:31:00.038Z,6.00
2023-03-14T15:33:27.676Z,6.00
2023-03-14T15:35:55.654Z,7.25
2023-03-14T15:38:26.314Z,9.25
2023-03-14T15:40:54.255Z,14.25
2023-03-14T15:43:21.529Z,7.25
2023-03-14T15:45:48.573Z,15.00
2023-03-14T15:48:17.464Z,23.33
2023-03-14T15:50:45.069Z,14.25
2023-03-14T15:53:12.613Z,7.50
2023-03-14T15:55:39.457Z,15.50
2023-03-14T15:58:06.601Z,15.75
2023-03-14T16:00:33.506Z,12.50
2023-03-14T16:03:00.863Z,11.00
2023-03-14T16:05:27.800Z,13.50
2023-03-14T16:07:54.569Z,15.75
2023-03-14T16:10:21.451Z,14.25
2023-03-14T16:12:48.848Z,14.25
2023-03-14T16:15:15.894Z,8.00
2023-03-14T16:17:44.323Z,2.00
2023-03-14T16:20:12.825Z,5.25
2023-03-14T16:22:39.751Z,9.50
2023-03-14T16:25:08.203Z,5.25
2023-03-14T16:27:35.185Z,8.00
2023-03-14T16:30:02.093Z,11.25
2023-03-14T16:32:29.101Z,10.25
2023-03-14T16:34:56.664Z,24.00
2023-03-14T16:37:24.963Z,19.00
2023-03-14T16:40:11.044Z,36.33
2023-03-14T16:42:46.633Z,36.67
2023-03-14T16:45:17.498Z,33.67
2023-03-14T16:47:44.478Z,47.67
2023-03-14T16:50:11.590Z,41.00
2023-03-14T16:52:39.171Z,42.67
2023-03-14T16:55:07.604Z,33.00
2023-03-14T16:57:35.250Z,18.00
2023-03-14T17:00:03.253Z,29.33
2023-03-14T17:02:30.054Z,33.00
2023-03-14T17:04:56.855Z,35.33
2023-03-14T17:07:23.653Z,40.00
2023-03-14T17:09:51.761Z,39.67
2023-03-14T17:12:18.556Z,52.00
2023-03-14T17:14:45.393Z,138.00
2023-03-14T17:17:12.322Z,66.25
2023-03-14T17:19:39.097Z,61.75
2023-03-14T17:22:21.905Z,88.50
2023-03-14T17:24:50.257Z,122.50
2023-03-14T17:27:20.467Z,130.00
2023-03-14T17:29:48.484Z,118.50
2023-03-14T17:32:16.831Z,123.00
2023-03-14T17:34:43.915Z,129.50
2023-03-14T17:37:11.174Z,137.75
2023-03-14T17:39:39.428Z,137.50
2023-03-14T17:42:07.226Z,142.25
2023-03-14T17:44:34.941Z,123.50
2023-03-14T17:47:02.357Z,122.75
2023-03-14T17:49:29.574Z,123.00
2023-03-14T17:51:56.315Z,78.00
2023-03-14T17:54:23.141Z,92.75
2023-03-14T17:56:50.566Z,127.00
2023-03-14T17:59:18.034Z,116.75
2023-03-14T18:01:45.793Z,137.00
2023-03-14T18:04:14.425Z,247.75
2023-03-14T18:06:44.783Z,204.00
2023-03-14T18:09:11.681Z,159.00
2023-03-14T18:11:38.598Z,175.50
2023-03-14T18:14:07.802Z,178.00
2023-03-14T18:16:35.254Z,75.00
2023-03-14T18:19:04.142Z,159.50
2023-03-14T18:21:31.121Z,164.00
2023-03-14T18:23:58.528Z,167.25
2023-03-14T18:26:28.195Z,168.50
2023-03-14T18:28:55.238Z,206.25
2023-03-14T18:31:25.178Z,181.50
2023-03-14T18:33:55.773Z,189.75
2023-03-14T18:36:22.626Z,162.75
2023-03-14T18:38:51.660Z,224.75
2023-03-14T18:41:20.276Z,232.50
2023-03-14T18:43:47.187Z,164.75
2023-03-14T18:46:14.241Z,94.25
2023-03-14T18:48:44.672Z,137.25
2023-03-14T18:51:15.286Z,82.75
2023-03-14T18:53:43.345Z,79.00
2023-03-14T18:56:14.219Z,74.50
2023-03-14T18:58:42.546Z,68.50
2023-03-14T19:01:11.730Z,85.75
2023-03-14T19:03:39.743Z,77.50
2023-03-14T19:06:08.427Z,69.50
2023-03-14T19:08:36.507Z,85.75
2023-03-14T19:11:06.549Z,109.50
2023-03-14T19:13:34.915Z,120.00
2023-03-14T19:16:02.714Z,128.50
2023-03-14T19:18:31.253Z,126.25
2023-03-14T19:21:04.118Z,170.25
2023-03-14T19:23:33.299Z,157.00
2023-03-14T19:26:02.970Z,130.25
2023-03-14T19:28:34.822Z,160.00
2023-03-14T19:31:04.612Z,119.75
2023-03-14T19:33:32.134Z,155.50
2023-03-14T19:35:59.683Z,154.25
2023-03-14T19:38:26.503Z,184.75
2023-03-14T19:40:58.809Z,192.00
2023-03-14T19:43:27.867Z,142.75
2023-03-14T19:45:55.745Z,130.50
2023-03-14T19:48:30.793Z,136.00
2023-03-14T19:51:00.147Z,182.75
2023-03-14T19:53:28.071Z,172.00
2023-03-14T19:55:55.691Z,176.50
2023-03-14T19:58:23.730Z,178.25
2023-03-14T20:00:51.531Z,171.75
2023-03-14T20:03:18.484Z,161.75
2023-03-14T20:05:46.047Z,212.00
2023-03-14T20:08:12.957Z,222.50
2023-03-14T20:10:39.847Z,174.75
2023-03-14T20:13:19.111Z,177.25
2023-03-14T20:15:48.576Z,186.75
2023-03-14T20:18:15.394Z,154.25
2023-03-14T20:20:42.372Z,167.25
2023-03-14T20:23:09.429Z,140.50
2023-03-14T20:25:37.958Z,168.75
2023-03-14T20:28:05.451Z,176.75
2023-03-14T20:30:33.769Z,159.75
2023-03-14T20:33:04.660Z,153.75
2023-03-14T20:35:31.814Z,175.75
2023-03-14T20:37:58.684Z,173.50
2023-03-14T20:40:28.718Z,104.00
2023-03-14T20:42:55.991Z,173.25
2023-03-14T20:45:22.896Z,256.75
2023-03-14T20:47:51.010Z,241.50
2023-03-14T20:50:17.832Z,231.00
2023-03-14T20:52:45.472Z,236.75
2023-03-14T20:55:12.818Z,208.50
2023-03-14T20:57:39.595Z,175.75
2023-03-14T21:00:07.867Z,132.25
2023-03-14T21:02:35.314Z,125.25
2023-03-14T21:05:02.746Z,96.25
2023-03-14T21:07:31.956Z,93.25
2023-03-14T21:09:59.247Z,104.75
2023-03-14T21:12:26.218Z,110.00
2023-03-14T21:14:53.740Z,160.25
2023-03-14T21:17:21.080Z,180.00
2023-03-14T21:19:47.983Z,168.50
2023-03-14T21:22:18.820Z,170.50
2023-03-14T21:24:46.289Z,136.50
2023-03-14T21:27:13.128Z,113.00
2023-03-14T21:29:40.310Z,91.50
2023-03-14T21:32:07.330Z,80.50
2023-03-14T21:34:34.231Z,59.00
2023-03-14T21:37:01.441Z,70.50
2023-03-14T21:39:28.633Z,32.75
2023-03-14T21:41:55.576Z,61.75
2023-03-14T21:44:23.311Z,59.00
2023-03-14T21:46:50.955Z,48.25
2023-03-14T21:49:18.057Z,56.50
2023-03-14T21:51:46.261Z,94.25
2023-03-14T21:54:15.519Z,52.25
2023-03-14T21:56:44.162Z,59.00
2023-03-14T21:59:12.072Z,65.25
2023-03-14T22:01:39.327Z,57.00
2023-03-14T22:04:06.281Z,84.50
2023-03-14T22:06:35.100Z,123.50
2023-03-14T22:09:03.225Z,58.25
2023-03-14T22:11:29.976Z,69.50
2023-03-14T22:13:57.828Z,74.25
2023-03-14T22:16:25.464Z,87.75
2023-03-14T22:18:52.258Z,92.25
2023-03-14T22:21:19.788Z,90.00
2023-03-14T22:23:46.508Z,89.00
2023-03-14T22:26:13.319Z,83.50
2023-03-14T22:28:40.620Z,116.50
2023-03-14T22:31:09.761Z,96.50
2023-03-14T22:33:36.645Z,122.00
2023-03-14T22:36:04.755Z,159.25
2023-03-14T22:38:31.807Z,322.25
2023-03-14T22:41:02.589Z,139.25
2023-03-14T22:43:31.070Z,139.75
2023-03-14T22:46:06.641Z,138.50
2023-03-14T22:48:34.228Z,130.00
2023-03-14T22:51:06.888Z,134.75
2023-03-14T22:53:33.840Z,153.25
2023-03-14T22:56:02.306Z,175.00
2023-03-14T22:58:29.500Z,147.50
2023-03-14T23:00:56.720Z,158.75
2023-03-14T23:03:23.648Z,165.00
2023-03-14T23:05:50.560Z,164.25
2023-03-14T23:08:17.732Z,142.25
2023-03-14T23:10:44.702Z,140.50
2023-03-14T23:13:15.185Z,127.50
2023-03-14T23:15:44.631Z,95.75
2023-03-14T23:18:13.821Z,160.75
2023-03-14T23:20:43.179Z,103.75
2023-03-14T23:23:13.807Z,100.00
2023-03-14T23:25:52.810Z,121.75
2023-03-14T23:28:23.219Z,87.50
2023-03-14T23:30:56.852Z,96.00
2023-03-14T23:33:25.891Z,97.25
2023-03-14T23:35:54.489Z,104.50
2023-03-14T23:38:25.919Z,97.25
2023-03-14T23:40:53.661Z,99.75
2023-03-14T23:43:21.809Z,96.50
2023-03-14T23:45:53.980Z,105.25
2023-03-14T23:48:25.796Z,93.75
2023-03-14T23:50:59.877Z,122.25
2023-03-14T23:53:28.391Z,125.50
2023-03-14T23:55:55.863Z,119.00
2023-03-14T23:58:23.481Z,127.25
